Date,TemperatureHighF,TemperatureAvgF,TemperatureLowF,DewpointHighF,DewpointAvgF,DewpointLowF,HumidityHigh,HumidityAvg,HumidityLow,PressureMaxIn,PressureMinIn,WindSpeedMaxMPH,WindSpeedAvgMPH,GustSpeedMaxMPH,PrecipitationSumIn
2013-1-1,57,46,50,53,24,-100,94,68,68,29.95,29.76,11,-167,17,0.04
2013-1-2,54,37,41,53,15,-100,97,74,84,30.00,29.72,16,-202,17,0.17
2013-1-3,43,33,34,38,10,-100,92,67,74,30.06,29.95,9,-183,12,0.02
2013-1-4,52,34,29,35,8,-100,100,58,42,30.12,30.00,8,-172,18,0.01
2013-1-5,53,36,28,35,12,-100,91,58,35,30.20,30.07,6,-137,10,0.00
2013-1-6,48,38,38,46,18,-100,95,74,74,30.09,29.89,7,-167,13,0.00
2013-1-7,52,39,35,44,17,-100,94,64,55,30.26,29.94,17,-137,20,0.00
2013-1-8,63,44,40,52,25,-100,96,70,64,30.25,30.16,8,-136,10,0.00
2013-1-9,69,49,41,58,31,-100,97,73,64,30.24,30.16,6,-140,9,0.00
2013-1-10,59,45,47,53,22,-100,98,61,46,30.33,30.20,21,-147,21,0.00
2013-1-11,71,53,47,64,37,-100,97,75,68,30.25,29.96,20,-124,24,0.13
2013-1-12,76,57,55,67,43,-100,100,80,71,29.99,29.91,9,-114,13,0.01
2013-1-13,76,55,55,65,38,-100,98,77,66,29.98,29.89,10,-135,13,0.01
2013-1-14,78,58,57,66,42,-100,98,76,62,30.00,29.92,12,-125,18,0.00
2013-1-15,64,49,53,62,32,-100,98,79,83,30.01,29.88,10,-146,13,0.06
2013-1-16,75,52,53,67,32,-100,98,73,70,29.88,29.76,20,-170,23,0.00
2013-1-17,68,47,42,64,32,-100,98,82,84,29.81,29.63,23,-133,30,0.22
2013-1-18,48,36,36,41,11,-100,92,58,46,30.34,29.75,20,-157,23,0.00
2013-1-19,61,41,32,46,25,-100,95,68,51,30.32,30.00,7,-78,9,0.00
2013-1-20,66,45,40,46,21,-100,97,60,35,30.00,29.79,10,-140,21,0.00
2013-1-21,64,45,34,47,23,-100,96,61,41,29.89,29.68,15,-126,22,0.00
2013-1-22,53,46,44,37,23,-100,60,46,39,29.82,29.74,9,-46,19,0.00
2013-1-23,41,33,28,23,10,-100,80,44,26,30.20,0.00,10,-15,17,0.00
2013-1-24,44,30,27,36,3,-100,87,46,32,30.32,29.79,19,-119,28,0.00
2013-1-25,34,27,24,32,5,-100,95,62,48,30.33,29.91,12,-134,17,0.29
2013-1-26,34,26,29,32,5,-100,94,74,90,30.20,29.92,9,-190,12,0.00
2013-1-27,42,30,29,30,10,-100,94,67,56,30.39,30.21,15,-133,20,0.00
2013-1-28,60,40,27,57,23,-100,97,75,70,30.33,30.06,10,-137,13,0.01
2013-1-29,74,55,53,61,39,-100,100,74,58,30.06,29.93,12,-114,17,0.00
2013-1-30,74,60,60,65,45,-100,97,76,71,29.96,29.45,25,-95,38,0.00
2013-1-31,69,47,43,65,20,-100,95,49,28,29.87,29.32,28,-118,42,0.04